createdAt,value
2017-10-26T00:00:52.502Z,27.70
2017-10-26T00:03:21.608Z,28.23
2017-10-26T00:05:50.720Z,28.23
2017-10-26T00:08:19.057Z,27.23
2017-10-26T00:10:47.397Z,27.63
2017-10-26T00:13:15.727Z,27.50
2017-10-26T00:15:44.048Z,30.03
2017-10-26T00:18:12.397Z,30.03
2017-10-26T00:20:40.715Z,29.03
2017-10-26T00:23:09.030Z,31.50
2017-10-26T00:25:37.380Z,30.23
2017-10-26T00:28:05.694Z,31.10
2017-10-26T00:30:34.053Z,30.80
2017-10-26T00:33:02.375Z,29.90
2017-10-26T00:35:30.694Z,28.23
2017-10-26T00:37:59.770Z,29.80
2017-10-26T00:40:28.146Z,30.03
2017-10-26T00:42:57.997Z,30.00
2017-10-26T00:45:26.372Z,31.80
2017-10-26T00:47:54.711Z,33.30
2017-10-26T00:50:23.035Z,31.00
2017-10-26T00:52:52.125Z,32.47
2017-10-26T00:55:21.231Z,34.20
2017-10-26T00:57:49.579Z,33.93
2017-10-26T01:00:17.907Z,33.10
2017-10-26T01:02:46.235Z,33.33
2017-10-26T01:05:14.578Z,34.67
2017-10-26T01:07:42.933Z,33.00
2017-10-26T01:10:12.079Z,34.73
2017-10-26T01:12:40.449Z,35.20
2017-10-26T01:15:08.829Z,35.03
2017-10-26T01:17:37.200Z,36.20
2017-10-26T01:20:07.455Z,34.87
2017-10-26T01:22:35.850Z,35.30
2017-10-26T01:25:04.257Z,38.73
2017-10-26T01:27:33.369Z,34.27
2017-10-26T01:30:02.480Z,36.93
2017-10-26T01:32:31.581Z,37.20
2017-10-26T01:34:59.936Z,35.07
2017-10-26T01:37:29.144Z,35.47
2017-10-26T01:39:58.243Z,34.73
2017-10-26T01:42:26.547Z,36.60
2017-10-26T01:44:54.847Z,37.37
2017-10-26T01:47:23.176Z,35.83
2017-10-26T01:49:51.478Z,37.07
2017-10-26T01:52:20.578Z,36.00
2017-10-26T01:54:49.735Z,34.93
2017-10-26T01:57:18.074Z,34.63
2017-10-26T01:59:46.403Z,33.90
2017-10-26T02:02:14.754Z,33.27
2017-10-26T02:04:43.070Z,34.27
2017-10-26T02:07:11.412Z,35.10
2017-10-26T02:09:39.760Z,34.23
2017-10-26T02:12:08.837Z,35.10
2017-10-26T02:14:37.182Z,33.07
2017-10-26T02:17:05.502Z,35.30
2017-10-26T02:19:33.843Z,35.60
2017-10-26T02:22:02.196Z,33.57
2017-10-26T02:24:31.281Z,36.00
2017-10-26T02:26:59.624Z,36.47
2017-10-26T02:29:45.565Z,36.37
2017-10-26T02:32:14.656Z,37.07
2017-10-26T02:34:43.758Z,35.47
2017-10-26T02:37:12.868Z,37.23
2017-10-26T02:39:41.196Z,36.80
2017-10-26T02:42:09.515Z,36.20
2017-10-26T02:44:38.586Z,36.37
2017-10-26T02:47:06.927Z,35.97
2017-10-26T02:49:35.246Z,37.50
2017-10-26T02:52:03.605Z,36.30
2017-10-26T02:54:31.955Z,36.87
2017-10-26T02:57:00.276Z,37.03
2017-10-26T02:59:28.634Z,36.23
2017-10-26T03:01:56.940Z,38.50
2017-10-26T03:04:25.287Z,37.87
2017-10-26T03:06:53.618Z,36.70
2017-10-26T03:09:21.941Z,39.00
2017-10-26T03:11:50.268Z,38.20
2017-10-26T03:14:18.594Z,37.00
2017-10-26T03:16:47.693Z,38.47
2017-10-26T03:19:16.778Z,37.97
2017-10-26T03:21:45.118Z,36.50
2017-10-26T03:24:13.440Z,40.13
2017-10-26T03:26:41.773Z,40.57
2017-10-26T03:29:10.174Z,37.90
2017-10-26T03:31:38.503Z,36.97
2017-10-26T03:34:07.568Z,37.77
2017-10-26T03:36:35.903Z,36.47
2017-10-26T03:39:04.231Z,38.80
2017-10-26T03:41:32.538Z,39.00
2017-10-26T03:44:01.614Z,37.83
2017-10-26T03:46:29.962Z,38.00
2017-10-26T03:48:58.284Z,40.73
2017-10-26T03:51:26.654Z,38.20
2017-10-26T03:53:54.972Z,36.53
2017-10-26T03:56:24.065Z,36.87
2017-10-26T03:58:53.143Z,38.67
2017-10-26T04:01:21.484Z,37.13
2017-10-26T04:03:49.801Z,38.03
2017-10-26T04:06:18.126Z,36.90
2017-10-26T04:08:46.439Z,36.87
2017-10-26T04:11:14.786Z,36.60
2017-10-26T04:13:43.092Z,38.80
2017-10-26T04:16:11.388Z,37.60
2017-10-26T04:18:39.700Z,36.83
2017-10-26T04:21:08.824Z,38.57
2017-10-26T04:23:37.918Z,39.30
2017-10-26T04:26:07.014Z,35.90
2017-10-26T04:28:35.341Z,36.77
2017-10-26T04:31:03.733Z,37.37
2017-10-26T04:33:32.075Z,37.77
2017-10-26T04:36:00.386Z,35.03
2017-10-26T04:38:28.708Z,35.67
2017-10-26T04:40:57.048Z,36.23
2017-10-26T04:43:25.368Z,38.10
2017-10-26T04:45:53.698Z,37.83
2017-10-26T04:48:22.029Z,38.97
2017-10-26T04:50:50.358Z,39.83
2017-10-26T04:53:18.668Z,39.77
2017-10-26T04:55:46.976Z,37.60
2017-10-26T04:58:15.297Z,39.53
2017-10-26T05:00:43.625Z,39.17
2017-10-26T05:03:11.960Z,38.00
2017-10-26T05:05:40.284Z,39.43
2017-10-26T05:08:08.611Z,38.10
2017-10-26T05:10:36.945Z,36.97
2017-10-26T05:13:05.266Z,38.17
2017-10-26T05:15:34.365Z,35.70
2017-10-26T05:18:02.693Z,34.80
2017-10-26T05:20:31.006Z,35.20
2017-10-26T05:22:59.329Z,37.93
2017-10-26T05:25:27.840Z,35.50
2017-10-26T05:27:56.175Z,35.80
2017-10-26T05:30:25.300Z,37.10
2017-10-26T05:32:53.625Z,36.67
2017-10-26T05:35:21.954Z,34.47
2017-10-26T05:37:50.284Z,36.37
2017-10-26T05:40:18.599Z,35.50
2017-10-26T05:42:47.684Z,36.40
2017-10-26T05:45:16.768Z,36.17
2017-10-26T05:47:45.090Z,35.67
2017-10-26T05:50:13.431Z,34.73
2017-10-26T05:52:41.769Z,37.80
2017-10-26T05:55:10.109Z,36.80
2017-10-26T05:57:39.969Z,37.63
2017-10-26T06:00:08.289Z,35.33
2017-10-26T06:02:36.632Z,35.60
2017-10-26T06:05:05.001Z,34.77
2017-10-26T06:07:33.309Z,34.67
2017-10-26T06:10:01.664Z,33.17
2017-10-26T06:12:29.970Z,35.17
2017-10-26T06:14:58.339Z,34.27
2017-10-26T06:17:26.734Z,34.77
2017-10-26T06:19:55.103Z,35.67
2017-10-26T06:22:23.475Z,37.70
2017-10-26T06:24:51.805Z,35.47
2017-10-26T06:27:20.137Z,36.43
2017-10-26T06:29:48.469Z,34.20
2017-10-26T06:32:16.779Z,32.47
2017-10-26T06:34:45.869Z,28.50
2017-10-26T06:37:14.176Z,32.23
2017-10-26T06:39:42.515Z,33.97
2017-10-26T06:42:10.848Z,30.50
2017-10-26T06:44:40.013Z,33.00
2017-10-26T06:47:08.332Z,34.37
2017-10-26T06:49:36.655Z,34.47
2017-10-26T06:52:05.001Z,32.87
2017-10-26T06:54:33.331Z,31.20
2017-10-26T06:57:01.668Z,31.60
2017-10-26T06:59:30.036Z,28.63
2017-10-26T07:01:58.353Z,30.60
2017-10-26T07:04:26.705Z,29.60
2017-10-26T07:06:55.035Z,31.40
2017-10-26T07:09:23.336Z,31.30
2017-10-26T07:11:52.437Z,30.23
2017-10-26T07:14:21.545Z,31.70
2017-10-26T07:16:50.663Z,32.20
2017-10-26T07:19:18.991Z,31.43
2017-10-26T07:21:47.334Z,32.80
2017-10-26T07:24:15.643Z,33.63
2017-10-26T07:26:44.005Z,29.90
2017-10-26T07:29:12.329Z,34.50
2017-10-26T07:31:40.673Z,31.57
2017-10-26T07:34:09.011Z,31.67
2017-10-26T07:36:38.104Z,30.20
2017-10-26T07:39:07.183Z,32.77
2017-10-26T07:41:35.521Z,32.53
2017-10-26T07:44:03.839Z,30.97
2017-10-26T07:46:34.775Z,30.30
2017-10-26T07:49:03.085Z,32.90
2017-10-26T07:51:32.184Z,30.47
2017-10-26T07:54:01.317Z,31.40
2017-10-26T07:56:29.722Z,30.00
2017-10-26T07:58:58.066Z,31.90
2017-10-26T08:01:26.365Z,31.27
2017-10-26T08:03:54.695Z,30.70
2017-10-26T08:06:23.742Z,31.63
2017-10-26T08:08:52.060Z,33.53
2017-10-26T08:11:20.391Z,32.57
2017-10-26T08:13:48.714Z,32.10
2017-10-26T08:16:17.053Z,29.13
2017-10-26T08:18:45.388Z,29.70
2017-10-26T08:21:13.709Z,30.27
2017-10-26T08:23:42.043Z,29.87
2017-10-26T08:26:10.365Z,29.90
2017-10-26T08:28:39.475Z,29.87
2017-10-26T08:31:07.876Z,31.23
2017-10-26T08:33:36.218Z,30.47
2017-10-26T08:36:05.308Z,30.67
2017-10-26T08:38:33.647Z,30.87
2017-10-26T08:41:01.998Z,27.07
2017-10-26T08:43:31.095Z,25.90
2017-10-26T08:46:00.188Z,26.43
2017-10-26T08:48:29.279Z,24.80
2017-10-26T08:50:58.380Z,24.30
2017-10-26T08:53:27.491Z,22.63
2017-10-26T08:55:56.600Z,21.57
2017-10-26T08:58:25.025Z,24.07
2017-10-26T09:00:53.346Z,22.67
2017-10-26T09:03:22.450Z,22.70
2017-10-26T09:05:51.574Z,20.50
2017-10-26T09:08:19.896Z,22.20
2017-10-26T09:10:48.214Z,22.50
2017-10-26T09:13:17.302Z,23.83
2017-10-26T09:15:45.620Z,24.80
2017-10-26T09:18:13.943Z,23.43
2017-10-26T09:20:42.248Z,22.67
2017-10-26T09:23:11.350Z,23.30
2017-10-26T09:25:39.676Z,22.90
2017-10-26T09:28:07.989Z,22.90
2017-10-26T09:30:36.307Z,20.87
2017-10-26T09:33:10.797Z,22.70
2017-10-26T09:35:39.121Z,20.50
2017-10-26T09:38:07.445Z,20.43
2017-10-26T09:40:35.770Z,19.57
2017-10-26T09:43:04.867Z,18.60
2017-10-26T09:45:33.231Z,15.43
2017-10-26T09:48:01.556Z,12.50
2017-10-26T09:50:29.884Z,10.40
2017-10-26T09:52:58.199Z,9.00
2017-10-26T09:55:26.527Z,8.70
2017-10-26T09:57:54.854Z,6.60
2017-10-26T10:00:23.936Z,5.97
2017-10-26T10:02:52.256Z,5.47
2017-10-26T10:05:20.572Z,5.47
2017-10-26T10:07:48.980Z,6.83
2017-10-26T10:10:18.070Z,6.40
2017-10-26T10:12:46.412Z,4.80
2017-10-26T10:15:14.758Z,4.90
2017-10-26T10:17:43.832Z,4.30
2017-10-26T10:20:12.166Z,3.93
2017-10-26T10:22:40.502Z,3.77
2017-10-26T10:25:08.856Z,3.33
2017-10-26T10:27:37.189Z,2.90
2017-10-26T10:30:05.538Z,3.50
2017-10-26T10:32:33.874Z,3.50
2017-10-26T10:35:02.220Z,2.73
2017-10-26T10:37:30.550Z,2.40
2017-10-26T10:39:58.863Z,3.10
2017-10-26T10:42:27.185Z,2.90
2017-10-26T10:44:55.511Z,2.50
2017-10-26T10:47:23.828Z,2.60
2017-10-26T10:49:52.119Z,3.00
2017-10-26T10:52:21.970Z,3.70
2017-10-26T10:54:50.259Z,2.50
2017-10-26T10:57:18.611Z,3.77
2017-10-26T11:02:50.661Z,3.00
2017-10-26T11:05:19.735Z,3.20
2017-10-26T11:07:48.097Z,3.97
2017-10-26T11:10:17.019Z,3.63
2017-10-26T11:12:46.220Z,3.77
2017-10-26T11:15:14.549Z,3.47
2017-10-26T11:17:42.887Z,3.63
2017-10-26T11:20:11.226Z,3.20
2017-10-26T11:22:39.692Z,3.70
2017-10-26T11:25:07.998Z,3.27
2017-10-26T11:27:36.322Z,2.97
2017-10-26T11:30:04.642Z,2.80
2017-10-26T11:32:33.131Z,2.70
2017-10-26T11:35:01.446Z,3.50
2017-10-26T11:37:29.755Z,2.90
2017-10-26T11:39:58.068Z,2.90
2017-10-26T11:42:26.380Z,3.20
2017-10-26T11:44:54.695Z,3.17
2017-10-26T11:47:23.007Z,3.27
2017-10-26T11:49:51.326Z,3.47
2017-10-26T11:52:19.635Z,3.07
2017-10-26T11:54:48.024Z,3.20
2017-10-26T11:57:17.144Z,3.43
2017-10-26T11:59:45.469Z,3.33
2017-10-26T12:02:13.788Z,3.17
2017-10-26T12:04:42.892Z,3.13
2017-10-26T12:07:11.976Z,3.40
2017-10-26T12:09:41.063Z,3.57
2017-10-26T12:12:09.380Z,3.23
2017-10-26T12:14:38.512Z,3.20
2017-10-26T12:17:06.858Z,2.77
2017-10-26T12:19:35.936Z,3.43
2017-10-26T12:22:05.050Z,3.10
2017-10-26T12:24:34.159Z,3.23
2017-10-26T12:27:03.286Z,3.60
2017-10-26T12:29:31.623Z,3.70
2017-10-26T12:31:59.946Z,3.53
2017-10-26T12:34:28.275Z,3.67
2017-10-26T12:36:56.605Z,4.20
2017-10-26T12:39:24.952Z,4.00
2017-10-26T12:41:54.056Z,4.00
2017-10-26T12:44:23.133Z,3.37
2017-10-26T12:46:51.455Z,2.90
2017-10-26T12:49:19.773Z,3.03
2017-10-26T12:51:48.103Z,4.23
2017-10-26T12:54:17.212Z,3.30
2017-10-26T12:56:45.530Z,3.37
2017-10-26T12:59:13.892Z,3.20
2017-10-26T13:01:42.990Z,2.70
2017-10-26T13:04:11.283Z,3.73
2017-10-26T13:06:39.619Z,3.60
2017-10-26T13:09:08.752Z,3.97
2017-10-26T13:11:37.054Z,3.93
2017-10-26T13:14:05.385Z,4.00
2017-10-26T13:16:34.482Z,3.70
2017-10-26T13:19:03.582Z,4.17
2017-10-26T13:21:32.673Z,4.50
2017-10-26T13:24:01.012Z,4.07
2017-10-26T13:26:29.363Z,3.30
2017-10-26T13:28:58.101Z,3.63
2017-10-26T13:31:26.600Z,3.73
2017-10-26T13:33:54.904Z,4.17
2017-10-26T13:36:24.001Z,4.97
2017-10-26T13:38:52.358Z,3.50
2017-10-26T13:41:20.672Z,4.13
2017-10-26T13:43:49.762Z,4.10
2017-10-26T13:46:18.854Z,3.73
2017-10-26T13:48:47.220Z,4.07
2017-10-26T13:51:15.560Z,4.47
2017-10-26T13:53:43.880Z,4.90
2017-10-26T13:56:12.201Z,5.03
2017-10-26T13:58:40.533Z,4.87
2017-10-26T14:01:08.848Z,4.50
2017-10-26T14:03:37.163Z,5.10
2017-10-26T14:06:05.490Z,5.47
2017-10-26T14:08:33.830Z,6.03
2017-10-26T14:11:02.154Z,5.70
2017-10-26T14:13:30.435Z,5.07
2017-10-26T14:15:58.811Z,5.50
2017-10-26T14:18:27.255Z,6.53
2017-10-26T14:20:55.557Z,6.13
2017-10-26T14:23:23.875Z,5.10
2017-10-26T14:25:52.196Z,5.80
2017-10-26T14:28:20.513Z,6.33
2017-10-26T14:30:48.840Z,6.07
2017-10-26T14:33:17.938Z,5.03
2017-10-26T14:35:47.017Z,4.43
2017-10-26T14:38:15.331Z,4.97
2017-10-26T14:40:43.651Z,5.40
2017-10-26T14:43:11.975Z,5.30
2017-10-26T14:45:41.080Z,5.77
2017-10-26T14:48:10.153Z,5.07
2017-10-26T14:50:38.472Z,5.07
2017-10-26T14:53:06.809Z,4.70
2017-10-26T14:55:35.119Z,3.83
2017-10-26T14:58:04.221Z,4.63
2017-10-26T15:00:32.553Z,5.70
2017-10-26T15:03:00.904Z,4.53
2017-10-26T15:05:29.237Z,4.13
2017-10-26T15:07:58.066Z,4.90
2017-10-26T15:10:26.403Z,4.40
2017-10-26T15:12:54.711Z,5.40
2017-10-26T15:15:23.785Z,4.53
2017-10-26T15:17:52.113Z,5.63
2017-10-26T15:20:20.427Z,4.47
2017-10-26T15:22:48.749Z,4.60
2017-10-26T15:25:17.102Z,4.07
2017-10-26T15:27:45.449Z,4.90
2017-10-26T15:30:13.772Z,4.77
2017-10-26T15:32:42.095Z,4.60
2017-10-26T15:35:11.176Z,4.10
2017-10-26T15:37:40.248Z,4.00
2017-10-26T15:40:08.569Z,4.23
2017-10-26T15:42:36.911Z,4.20
2017-10-26T15:45:05.243Z,4.10
2017-10-26T15:47:33.563Z,4.00
2017-10-26T15:50:01.889Z,4.13
2017-10-26T15:52:30.988Z,3.80
2017-10-26T15:55:00.085Z,3.17
2017-10-26T15:57:29.169Z,3.40
2017-10-26T15:59:57.480Z,3.47
2017-10-26T16:02:25.804Z,4.23
2017-10-26T16:04:54.123Z,4.93
2017-10-26T16:07:24.055Z,4.40
2017-10-26T16:09:52.402Z,5.30
2017-10-26T16:12:20.731Z,4.07
2017-10-26T16:14:49.038Z,4.50
2017-10-26T16:17:17.374Z,3.50
2017-10-26T16:19:46.484Z,4.40
2017-10-26T16:22:14.797Z,3.60
2017-10-26T16:24:43.133Z,3.90
2017-10-26T16:27:12.214Z,4.17
2017-10-26T16:29:41.340Z,5.00
2017-10-26T16:32:10.416Z,4.40
2017-10-26T16:34:38.741Z,3.37
2017-10-26T16:37:07.057Z,4.47
2017-10-26T16:39:35.380Z,3.50
2017-10-26T16:42:06.324Z,4.70
2017-10-26T16:44:34.872Z,5.10
2017-10-26T16:47:03.216Z,4.17
2017-10-26T16:49:31.540Z,4.80
2017-10-26T16:51:59.881Z,4.20
2017-10-26T16:54:28.906Z,4.20
2017-10-26T16:56:57.240Z,4.57
2017-10-26T16:59:25.629Z,6.60
2017-10-26T17:01:53.936Z,4.40
2017-10-26T17:04:22.246Z,5.60
2017-10-26T17:06:50.561Z,4.87
2017-10-26T17:09:18.915Z,4.97
2017-10-26T17:11:48.038Z,3.70
2017-10-26T17:14:16.461Z,5.27
2017-10-26T17:16:44.889Z,5.33
2017-10-26T17:19:14.803Z,5.70
2017-10-26T17:21:44.277Z,5.00
2017-10-26T17:24:13.762Z,5.60
2017-10-26T17:26:42.322Z,4.90
2017-10-26T17:29:10.672Z,4.70
2017-10-26T17:31:38.987Z,5.23
2017-10-26T17:34:08.077Z,4.60
2017-10-26T17:36:37.169Z,4.60
2017-10-26T17:39:05.526Z,5.90
2017-10-26T17:41:35.333Z,6.37
2017-10-26T17:44:03.640Z,5.63
2017-10-26T17:46:32.000Z,5.00
2017-10-26T17:49:01.062Z,6.50
2017-10-26T17:51:30.454Z,5.60
2017-10-26T17:53:58.772Z,5.90
2017-10-26T17:56:27.122Z,6.10
2017-10-26T17:58:55.441Z,6.20
2017-10-26T18:01:23.841Z,6.70
2017-10-26T18:03:52.148Z,7.97
2017-10-26T18:06:21.340Z,5.30
2017-10-26T18:08:50.324Z,5.83
2017-10-26T18:11:18.634Z,6.47
2017-10-26T18:13:47.720Z,7.27
2017-10-26T18:16:16.036Z,7.07
2017-10-26T18:18:44.346Z,6.53
2017-10-26T18:21:12.675Z,4.67
2017-10-26T18:23:41.771Z,6.40
2017-10-26T18:26:10.132Z,6.83
2017-10-26T18:28:38.448Z,6.17
2017-10-26T18:31:06.822Z,4.83
2017-10-26T18:33:35.896Z,6.57
2017-10-26T18:36:04.222Z,6.17
2017-10-26T18:38:32.535Z,5.43
2017-10-26T18:41:00.915Z,5.50
2017-10-26T18:43:29.222Z,5.40
2017-10-26T18:45:57.556Z,6.87
2017-10-26T18:48:25.891Z,4.60
2017-10-26T18:50:54.215Z,5.10
2017-10-26T18:53:22.526Z,5.50
2017-10-26T18:55:50.832Z,6.27
2017-10-26T18:58:19.165Z,7.03
2017-10-26T19:00:47.512Z,7.40
2017-10-26T19:03:16.583Z,7.43
2017-10-26T19:05:44.904Z,8.07
2017-10-26T19:08:13.240Z,7.37
2017-10-26T19:10:41.557Z,6.27
2017-10-26T19:13:10.641Z,6.93
2017-10-26T19:15:39.743Z,5.90
2017-10-26T19:18:08.846Z,4.83
2017-10-26T19:20:37.943Z,5.87
2017-10-26T19:23:07.054Z,5.37
2017-10-26T19:25:36.121Z,5.63
2017-10-26T19:28:04.479Z,5.60
2017-10-26T19:30:32.798Z,5.70
2017-10-26T19:33:01.116Z,6.77
2017-10-26T19:35:29.453Z,6.50
2017-10-26T19:37:57.776Z,5.23
2017-10-26T19:40:26.094Z,5.03
2017-10-26T19:42:54.392Z,5.20
2017-10-26T19:45:22.723Z,5.13
2017-10-26T19:47:51.052Z,5.90
2017-10-26T19:50:19.382Z,5.70
2017-10-26T19:52:47.692Z,5.80
2017-10-26T19:55:16.024Z,5.20
2017-10-26T19:57:44.378Z,5.40
2017-10-26T20:00:12.675Z,6.00
2017-10-26T20:02:40.994Z,7.37
2017-10-26T20:05:09.290Z,5.90
2017-10-26T20:07:37.754Z,5.73
2017-10-26T20:10:06.083Z,5.70
2017-10-26T20:12:34.419Z,5.70
2017-10-26T20:15:02.759Z,5.73
2017-10-26T20:17:31.886Z,6.93
2017-10-26T20:20:01.011Z,5.83
2017-10-26T20:22:29.334Z,7.17
2017-10-26T20:24:57.668Z,5.67
2017-10-26T20:27:26.000Z,6.60
2017-10-26T20:29:54.310Z,6.60
2017-10-26T20:32:23.464Z,7.00
2017-10-26T20:34:51.802Z,5.50
2017-10-26T20:37:20.119Z,5.50
2017-10-26T20:39:48.468Z,5.43
2017-10-26T20:42:16.779Z,5.57
2017-10-26T20:44:45.081Z,4.97
2017-10-26T20:47:13.430Z,4.30
2017-10-26T20:49:47.225Z,5.07
2017-10-26T20:52:20.966Z,5.27
2017-10-26T20:54:54.699Z,5.00
2017-10-26T20:57:29.256Z,5.67
2017-10-26T21:03:06.155Z,6.37
2017-10-26T21:05:39.901Z,6.53
2017-10-26T21:08:08.224Z,7.50
2017-10-26T21:10:41.998Z,7.70
2017-10-26T21:13:16.680Z,7.70
2017-10-26T21:15:44.995Z,8.37
2017-10-26T21:18:14.104Z,10.30
2017-10-26T21:20:43.183Z,7.47
2017-10-26T21:23:11.524Z,6.00
2017-10-26T21:25:39.839Z,6.63
2017-10-26T21:28:08.163Z,6.27
2017-10-26T21:30:36.503Z,5.20
2017-10-26T21:33:04.828Z,5.70
2017-10-26T21:35:33.134Z,5.63
2017-10-26T21:38:01.426Z,5.53
2017-10-26T21:40:29.773Z,5.10
2017-10-26T21:42:58.104Z,5.70
2017-10-26T21:45:26.445Z,9.27
2017-10-26T21:47:54.742Z,6.63
2017-10-26T21:50:23.053Z,6.97
2017-10-26T21:52:51.364Z,6.60
2017-10-26T21:55:20.447Z,7.07
2017-10-26T21:57:49.529Z,7.10
2017-10-26T22:00:17.880Z,7.10
2017-10-26T22:02:46.199Z,7.07
2017-10-26T22:05:14.530Z,7.07
2017-10-26T22:07:42.851Z,6.77
2017-10-26T22:10:11.174Z,5.40
2017-10-26T22:12:40.278Z,6.07
2017-10-26T22:15:08.613Z,6.53
2017-10-26T22:17:36.922Z,6.33
2017-10-26T22:20:06.013Z,6.27
2017-10-26T22:22:34.329Z,5.70
2017-10-26T22:25:02.660Z,5.73
2017-10-26T22:27:30.978Z,5.40
2017-10-26T22:30:00.039Z,3.93
2017-10-26T22:32:28.333Z,4.20
2017-10-26T22:34:56.674Z,6.93
2017-10-26T22:37:25.044Z,3.40
2017-10-26T22:39:53.344Z,3.40
2017-10-26T22:42:21.653Z,4.40
2017-10-26T22:44:49.962Z,2.83
2017-10-26T22:47:19.597Z,2.50
2017-10-26T22:49:47.921Z,2.73
2017-10-26T22:52:16.233Z,3.50
2017-10-26T22:54:44.617Z,2.53
2017-10-26T22:57:12.963Z,1.83
2017-10-26T22:59:41.290Z,2.73
2017-10-26T23:02:09.611Z,2.93
2017-10-26T23:04:37.933Z,2.73
2017-10-26T23:07:07.069Z,2.33
2017-10-26T23:09:35.377Z,2.07
2017-10-26T23:12:03.680Z,2.17
2017-10-26T23:14:31.992Z,2.43
2017-10-26T23:17:00.293Z,2.30
2017-10-26T23:19:28.611Z,2.37
2017-10-26T23:21:56.925Z,1.93
2017-10-26T23:24:25.250Z,2.37
2017-10-26T23:26:53.539Z,3.07
2017-10-26T23:29:21.867Z,2.83
2017-10-26T23:31:50.945Z,3.07
2017-10-26T23:34:19.243Z,2.53
2017-10-26T23:36:48.339Z,2.87
2017-10-26T23:39:17.423Z,3.10
2017-10-26T23:41:45.749Z,3.90
2017-10-26T23:44:14.136Z,2.47
2017-10-26T23:46:42.474Z,2.30
2017-10-26T23:49:10.796Z,3.17
2017-10-26T23:51:39.109Z,3.50
2017-10-26T23:54:07.562Z,2.97
2017-10-26T23:56:35.943Z,3.60
2017-10-26T23:59:04.293Z,3.20
